Flight Track Log - Related Links

Times and Time Zones

All times are in EDT time to prevent confusion due to time zone crossing. See the CTL62 flight status page for this flight to view local times or setup timezone preferences in your user account.


Time Position Orientation Groundspeed Altitude Reporting Facility
EDT Latitude Longitude Course Direction KTS MPH feet Rate Location/Type
Wed 01:58:08 AM 42.1000 -87.8500 109° East 130 150 1,700  Level Chicago TRACON
Wed 01:59:08 AM 42.1000 -87.8000 90° East 133 153 2,800 1,091 Climbing Chicago TRACON
Wed 02:00:09 AM 42.1000 -87.7500 90° East 135 155 3,900 942 Climbing Chicago TRACON
Wed 02:01:09 AM 42.0833 -87.7167 124° Southeast 151 174 4,700 750 Climbing Chicago TRACON
Wed 02:02:09 AM 42.0667 -87.6667 114° Southeast 158 182 5,400 685 Climbing Chicago TRACON
Wed 02:03:00 AM 41.9682 -87.5393 109° East  Level FlightAware Approximate
Wed 02:04:13 AM 42.0217 -87.5581 119° Southeast 157 181 6,800  Level Chicago Center
Wed 02:05:13 AM 41.9994 -87.5042 119° Southeast 163 188 7,300 545 Climbing Chicago Center
Wed 02:06:14 AM 41.9783 -87.4531 119° Southeast 161 185 7,900 645 Climbing Chicago Center
Wed 02:07:14 AM 41.9581 -87.4031 119° Southeast 155 178 8,600 600 Climbing Chicago Center
Wed 02:08:14 AM 41.9381 -87.3547 119° Southeast 150 173 9,100 250 Climbing Chicago Center
Wed 02:09:14 AM 41.9175 -87.3025 118° Southeast 156 180 9,100  Level Chicago Center
Wed 02:10:14 AM 41.8939 -87.2458 119° Southeast 170 196 9,100  Level Chicago Center
Wed 02:11:14 AM 41.8700 -87.1878 119° Southeast 177 204 9,100  Level Chicago Center
Wed 02:12:14 AM 41.8442 -87.1300 121° Southeast 179 206 9,100  Level Chicago Center
Wed 02:13:14 AM 41.8203 -87.0708 118° Southeast 181 208 9,100  Level Chicago Center
Wed 02:14:15 AM 41.7956 -87.0094 118° Southeast 186 214 9,100  Level Chicago Center
Wed 02:15:15 AM 41.7694 -86.9492 120° Southeast 187 215 9,100  Level Chicago Center
Wed 02:16:15 AM 41.7458 -86.8883 117° Southeast 186 214 9,100  Level Chicago Center
Wed 02:17:15 AM 41.7203 -86.8294 120° Southeast 185 213 9,100  Level Chicago Center
Wed 02:18:15 AM 41.6942 -86.7683 120° Southeast 188 216 9,100  Level Chicago Center
Wed 02:19:15 AM 41.6653 -86.7006 120° Southeast 191 220 9,100  Level Chicago Center
Wed 02:20:15 AM 41.6394 -86.6392 119° Southeast 191 220 9,100  Level Chicago Center
Wed 02:21:16 AM 41.6136 -86.5775 119° Southeast 191 220 9,100 50 Level Chicago Center
Wed 02:22:16 AM 41.5869 -86.5153 120° Southeast 193 222 9,200  Climbing Chicago Center
Wed 02:23:16 AM 41.5611 -86.4539 119° Southeast 192 221 9,100 -150 Descending Chicago Center
Wed 02:24:16 AM 41.5347 -86.3939 120° Southeast 188 216 8,900 -500 Descending Chicago Center
Wed 02:25:16 AM 41.5114 -86.3378 119° Southeast 175 201 8,100 -800 Descending Chicago Center
Wed 02:26:16 AM 41.4892 -86.2875 121° Southeast 159 183 7,300 -500 Descending Chicago Center
Wed 02:27:16 AM 41.4681 -86.2378 120° Southeast 155 178 7,100 -99 Descending Chicago Center
Wed 02:28:17 AM 41.4428 -86.1828 121° Southeast 170 196 7,100 50 Level Chicago Center
Wed 02:29:17 AM 41.4183 -86.1286 121° Southeast 173 199 7,200 50 Climbing Chicago Center
Wed 02:30:17 AM 41.3947 -86.0753 121° Southeast 169 194 7,200 -50 Level Chicago Center
Wed 02:31:17 AM 41.3725 -86.0208 119° Southeast 168 193 7,100 -50 Descending Chicago Center
Wed 02:32:17 AM 41.3475 -85.9653 121° Southeast 174 200 7,100 50 Level Chicago Center
Wed 02:33:17 AM 41.3217 -85.9094 122° Southeast 176 203 7,200 50 Climbing Chicago Center
Wed 02:34:17 AM 41.2967 -85.8547 121° Southeast 176 203 7,200  Level Chicago Center
Wed 02:35:18 AM 41.2733 -85.7992 119° Southeast 175 201 7,200  Level Chicago Center
Wed 02:36:18 AM 41.2489 -85.7447 121° Southeast 173 199 7,200  Level Chicago Center
Wed 02:37:18 AM 41.2247 -85.6911 121° Southeast 172 198 7,200 -50 Level Chicago Center
Wed 02:38:18 AM 41.2022 -85.6353 118° Southeast 172 198 7,100 -100 Descending Chicago Center
Wed 02:39:18 AM 41.1794 -85.5800 119° Southeast 172 198 7,000 50 Descending Chicago Center
Wed 02:40:18 AM 41.1558 -85.5244 119° Southeast 172 198 7,200 50 Climbing Chicago Center
Wed 02:41:19 AM 41.1289 -85.4639 121° Southeast 182 209 7,100 -50 Descending Chicago Center
Wed 02:42:19 AM 41.1017 -85.3989 119° Southeast 197 227 7,100 -50 Level Chicago Center
Wed 02:43:19 AM 41.0739 -85.3358 120° Southeast 199 229 7,000  Descending Chicago Center
Wed 02:44:19 AM 41.0467 -85.2739 120° Southeast 197 227 7,100  Climbing Chicago Center
Wed 02:45:19 AM 41.0197 -85.2131 120° Southeast 191 220 7,000  Descending Chicago Center
Wed 02:46:19 AM 40.9947 -85.1522 119° Southeast 190 219 7,100 50 Climbing Chicago Center
Wed 02:47:19 AM 40.9711 -85.0900 117° Southeast 190 219 7,100 -50 Level Chicago Center
Wed 02:48:19 AM 40.9442 -85.0289 120° Southeast 192 221 7,000 50 Descending Chicago Center
Wed 02:49:20 AM 40.9186 -84.9697 120° Southeast 188 216 7,200 50 Climbing Chicago Center
Wed 02:50:20 AM 40.8936 -84.9114 120° Southeast 186 214 7,100 -50 Descending Chicago Center
Wed 02:51:20 AM 40.8664 -84.8506 121° Southeast 189 217 7,100 -50 Level Chicago Center
Wed 02:52:20 AM 40.8375 -84.7947 124° Southeast 187 215 7,000  Descending Chicago Center
Wed 02:53:20 AM 40.8119 -84.7342 119° Southeast 187 215 7,100 50 Climbing Chicago Center
Wed 02:54:20 AM 40.7864 -84.6744 119° Southeast 188 216 7,100 -34 Level Chicago Center
Wed 02:56:15 AM 40.7325 -84.5542 121° Southeast 185 213 7,000 -34 Descending Indianapolis Center
Wed 02:57:16 AM 40.7097 -84.5061 122° Southeast 185 213 7,000 50 Level Indianapolis Center
Wed 02:58:16 AM 40.6822 -84.4478 122° Southeast 185 213 7,100 78 Climbing Indianapolis Center
Wed 02:58:33 AM 40.6753 -84.4317 120° Southeast 185 213 7,100  Level Chicago Center
Wed 02:59:33 AM 40.6461 -84.3614 119° Southeast 183 211 7,100  Level Chicago Center
Wed 02:59:58 AM 40.6347 -84.3408 126° Southeast 186 214 7,100 -140 Level Indianapolis Center
Wed 03:00:16 AM 40.6306 -84.3264 111° Southeast 187 215 7,000  Descending Indianapolis Center
Wed 03:00:58 AM 40.6083 -84.2794 122° Southeast 194 223 7,100  Climbing Indianapolis Center
Wed 03:01:16 AM 40.6033 -84.2647 114° Southeast 191 220 7,000 -98 Descending Indianapolis Center
Wed 03:01:59 AM 40.5839 -84.2158 118° Southeast 195 224 7,000  Level Indianapolis Center
Wed 03:02:16 AM 40.5778 -84.2014 119° Southeast 193 222 7,000 90 Level Indianapolis Center
Wed 03:03:06 AM 40.5539 -84.1458 119° Southeast 191 220 7,100  Climbing Indianapolis Center
Wed 03:04:06 AM 40.5269 -84.0872 121° Southeast 187 215 7,000  Descending Indianapolis Center
Wed 03:05:07 AM 40.5000 -84.0289 121° Southeast 189 217 7,100  Climbing Indianapolis Center
Wed 03:06:08 AM 40.4711 -83.9675 122° Southeast 194 223 7,000 -47 Descending Indianapolis Center
Wed 03:07:14 AM 40.4431 -83.8953 117° Southeast 195 224 7,000 47 Level Indianapolis Center
Wed 03:08:15 AM 40.4161 -83.8342 120° Southeast 193 222 7,100 50 Climbing Indianapolis Center
Wed 03:09:15 AM 40.3894 -83.7733 120° Southeast 193 222 7,100  Level Indianapolis Center
Wed 03:10:16 AM 40.3625 -83.7122 120° Southeast 193 222 7,100  Level Indianapolis Center
Wed 03:11:17 AM 40.3356 -83.6514 120° Southeast 191 220 7,100  Level Indianapolis Center
Wed 03:12:17 AM 40.3064 -83.5931 123° Southeast 192 221 7,100  Level Indianapolis Center
Wed 03:13:18 AM 40.2814 -83.5325 118° Southeast 191 220 7,100 -298 Level Indianapolis Center
Wed 03:14:18 AM 40.2522 -83.4664 120° Southeast 198 228 6,500 -600 Descending Indianapolis Center
Wed 03:15:18 AM 40.2272 -83.4100 120° Southeast 206 237 5,900 -850 Descending Indianapolis Center
Wed 03:16:18 AM 40.1961 -83.3408 120° Southeast 212 244 4,800 -1,240 Descending Indianapolis Center
Wed 03:17:19 AM 40.1661 -83.2689 119° Southeast 218 251 3,400 -893 Descending Indianapolis Center
Wed 03:18:19 AM 40.1389 -83.2031 118° Southeast 213 245 3,000 -200 Descending Indianapolis Center
Wed 03:19:19 AM 40.1125 -83.1494 123° Southeast 208 239 3,000  Level Indianapolis Center
Wed 03:21:00 AM 40.0798 -83.0732 123° Southeast  Level Estimated
Wed 03:28:00 AM 40.0798 -83.0732 123° Southeast  Level Estimated

Login

Don't have an account? Register now (free) for customized features, flight alerts, and more!